Terminal Aerodrome Forecast
Issued by NWS

Home | Current Version | Previous Version | Text Only | Print | Product List | Glossary On
Versions: 1 2 3 4 5 6 7 8 9 10 11 12 13 14 15
000
FTUS43 KDTX 181700
TAFDET
TAF
KDET 181720Z 1818/1918 04007KT P6SM SCT030 BKN040
     FM182300 05006KT P6SM SCT030
     FM191000 VRB03KT 4SM BR SCT030
     FM191300 11007KT P6SM SCT040=

USA.gov is the U.S. government's official web portal to all federal, state and local government web resources and services.